sensor_id;sensor_type;location;lat;lon;timestamp;P1;durP1;ratioP1;P2;durP2;ratioP2
8708;SDS011;4391;48.678;9.280;2022-11-20T00:01:14;5.20;;;2.33;;
8708;SDS011;4391;48.678;9.280;2022-11-20T00:03:42;6.70;;;2.15;;
8708;SDS011;4391;48.678;9.280;2022-11-20T00:06:10;5.57;;;2.00;;
8708;SDS011;4391;48.678;9.280;2022-11-20T00:08:38;5.33;;;2.53;;
8708;SDS011;4391;48.678;9.280;2022-11-20T00:11:06;4.80;;;2.00;;
8708;SDS011;4391;48.678;9.280;2022-11-20T00:13:34;4.70;;;2.13;;
8708;SDS011;4391;48.678;9.280;2022-11-20T00:16:02;4.72;;;1.92;;
8708;SDS011;4391;48.678;9.280;2022-11-20T00:18:33;4.68;;;2.10;;
8708;SDS011;4391;48.678;9.280;2022-11-20T00:21:01;4.10;;;2.03;;
8708;SDS011;4391;48.678;9.280;2022-11-20T00:23:28;5.45;;;2.17;;
8708;SDS011;4391;48.678;9.280;2022-11-20T00:25:55;7.82;;;2.35;;
8708;SDS011;4391;48.678;9.280;2022-11-20T00:28:22;5.18;;;2.30;;
8708;SDS011;4391;48.678;9.280;2022-11-20T00:30:49;5.55;;;2.20;;
8708;SDS011;4391;48.678;9.280;2022-11-20T00:33:16;6.60;;;2.10;;
8708;SDS011;4391;48.678;9.280;2022-11-20T00:35:44;5.22;;;2.10;;
8708;SDS011;4391;48.678;9.280;2022-11-20T00:38:10;5.93;;;1.95;;
8708;SDS011;4391;48.678;9.280;2022-11-20T00:40:37;4.93;;;1.98;;
8708;SDS011;4391;48.678;9.280;2022-11-20T00:43:04;4.63;;;1.90;;
8708;SDS011;4391;48.678;9.280;2022-11-20T00:45:31;5.37;;;1.87;;
8708;SDS011;4391;48.678;9.280;2022-11-20T00:47:58;5.28;;;2.17;;
8708;SDS011;4391;48.678;9.280;2022-11-20T00:50:24;5.78;;;2.25;;
8708;SDS011;4391;48.678;9.280;2022-11-20T00:52:53;4.97;;;1.88;;
8708;SDS011;4391;48.678;9.280;2022-11-20T00:55:19;4.82;;;1.80;;
8708;SDS011;4391;48.678;9.280;2022-11-20T00:57:46;5.07;;;2.17;;
8708;SDS011;4391;48.678;9.280;2022-11-20T01:00:13;5.43;;;2.03;;
8708;SDS011;4391;48.678;9.280;2022-11-20T01:02:40;6.55;;;2.00;;
8708;SDS011;4391;48.678;9.280;2022-11-20T01:05:07;5.82;;;2.30;;
8708;SDS011;4391;48.678;9.280;2022-11-20T01:07:34;5.32;;;1.98;;
8708;SDS011;4391;48.678;9.280;2022-11-20T01:10:02;4.90;;;1.90;;
8708;SDS011;4391;48.678;9.280;2022-11-20T01:12:30;4.72;;;1.77;;
8708;SDS011;4391;48.678;9.280;2022-11-20T01:14:56;6.40;;;2.17;;
8708;SDS011;4391;48.678;9.280;2022-11-20T01:17:23;5.13;;;2.22;;
8708;SDS011;4391;48.678;9.280;2022-11-20T01:19:50;6.22;;;2.00;;
8708;SDS011;4391;48.678;9.280;2022-11-20T01:22:17;5.50;;;1.83;;
8708;SDS011;4391;48.678;9.280;2022-11-20T01:24:43;5.40;;;1.83;;
8708;SDS011;4391;48.678;9.280;2022-11-20T01:27:12;7.32;;;2.45;;
8708;SDS011;4391;48.678;9.280;2022-11-20T01:29:38;5.28;;;1.88;;
8708;SDS011;4391;48.678;9.280;2022-11-20T01:32:05;6.50;;;1.90;;
8708;SDS011;4391;48.678;9.280;2022-11-20T01:34:32;4.47;;;2.00;;
8708;SDS011;4391;48.678;9.280;2022-11-20T01:36:59;5.57;;;2.13;;
8708;SDS011;4391;48.678;9.280;2022-11-20T01:39:26;4.32;;;2.00;;
8708;SDS011;4391;48.678;9.280;2022-11-20T01:41:53;4.32;;;1.90;;
8708;SDS011;4391;48.678;9.280;2022-11-20T01:44:49;6.50;;;2.25;;
8708;SDS011;4391;48.678;9.280;2022-11-20T01:47:20;4.90;;;2.17;;
8708;SDS011;4391;48.678;9.280;2022-11-20T01:49:55;5.72;;;2.00;;
8708;SDS011;4391;48.678;9.280;2022-11-20T01:52:26;4.40;;;1.83;;
8708;SDS011;4391;48.678;9.280;2022-11-20T01:54:58;6.70;;;2.15;;
8708;SDS011;4391;48.678;9.280;2022-11-20T01:57:29;5.97;;;2.45;;
8708;SDS011;4391;48.678;9.280;2022-11-20T02:00:02;6.50;;;2.20;;
8708;SDS011;4391;48.678;9.280;2022-11-20T02:02:31;5.05;;;2.35;;
8708;SDS011;4391;48.678;9.280;2022-11-20T02:05:00;4.90;;;2.15;;
8708;SDS011;4391;48.678;9.280;2022-11-20T02:07:35;8.15;;;2.55;;
8708;SDS011;4391;48.678;9.280;2022-11-20T02:10:03;5.40;;;2.20;;
8708;SDS011;4391;48.678;9.280;2022-11-20T02:12:30;5.20;;;2.40;;
8708;SDS011;4391;48.678;9.280;2022-11-20T02:15:16;5.47;;;2.28;;
8708;SDS011;4391;48.678;9.280;2022-11-20T02:17:43;4.60;;;2.10;;
8708;SDS011;4391;48.678;9.280;2022-11-20T02:20:10;5.72;;;2.53;;
8708;SDS011;4391;48.678;9.280;2022-11-20T02:22:38;5.43;;;2.60;;
8708;SDS011;4391;48.678;9.280;2022-11-20T02:25:16;10.67;;;3.00;;
8708;SDS011;4391;48.678;9.280;2022-11-20T02:27:43;5.80;;;2.45;;
8708;SDS011;4391;48.678;9.280;2022-11-20T02:30:10;6.65;;;2.50;;
8708;SDS011;4391;48.678;9.280;2022-11-20T02:32:38;5.10;;;2.13;;
8708;SDS011;4391;48.678;9.280;2022-11-20T02:35:09;5.10;;;2.15;;
8708;SDS011;4391;48.678;9.280;2022-11-20T02:37:56;5.50;;;2.30;;
8708;SDS011;4391;48.678;9.280;2022-11-20T02:40:26;7.13;;;2.50;;
8708;SDS011;4391;48.678;9.280;2022-11-20T02:42:53;6.72;;;2.50;;
8708;SDS011;4391;48.678;9.280;2022-11-20T02:45:21;5.63;;;2.70;;
8708;SDS011;4391;48.678;9.280;2022-11-20T02:47:48;6.47;;;2.75;;
8708;SDS011;4391;48.678;9.280;2022-11-20T02:50:15;4.87;;;2.40;;
8708;SDS011;4391;48.678;9.280;2022-11-20T02:52:42;4.60;;;2.00;;
8708;SDS011;4391;48.678;9.280;2022-11-20T02:55:09;5.40;;;2.33;;
8708;SDS011;4391;48.678;9.280;2022-11-20T02:57:37;6.30;;;2.75;;
8708;SDS011;4391;48.678;9.280;2022-11-20T03:00:05;6.55;;;2.83;;
8708;SDS011;4391;48.678;9.280;2022-11-20T03:02:33;6.10;;;2.60;;
8708;SDS011;4391;48.678;9.280;2022-11-20T03:05:00;5.88;;;3.10;;
8708;SDS011;4391;48.678;9.280;2022-11-20T03:07:27;4.97;;;2.40;;
8708;SDS011;4391;48.678;9.280;2022-11-20T03:09:53;5.30;;;2.42;;
8708;SDS011;4391;48.678;9.280;2022-11-20T03:12:20;5.60;;;2.60;;
8708;SDS011;4391;48.678;9.280;2022-11-20T03:14:49;7.03;;;2.67;;
8708;SDS011;4391;48.678;9.280;2022-11-20T03:17:15;5.40;;;2.50;;
8708;SDS011;4391;48.678;9.280;2022-11-20T03:19:42;5.78;;;2.33;;
8708;SDS011;4391;48.678;9.280;2022-11-20T03:22:09;6.95;;;2.63;;
8708;SDS011;4391;48.678;9.280;2022-11-20T03:24:36;5.63;;;2.35;;
8708;SDS011;4391;48.678;9.280;2022-11-20T03:27:03;6.00;;;2.43;;
8708;SDS011;4391;48.678;9.280;2022-11-20T03:29:30;6.15;;;2.65;;
8708;SDS011;4391;48.678;9.280;2022-11-20T03:31:58;5.93;;;2.55;;
8708;SDS011;4391;48.678;9.280;2022-11-20T03:34:25;5.60;;;2.10;;
8708;SDS011;4391;48.678;9.280;2022-11-20T03:36:52;6.40;;;2.20;;
8708;SDS011;4391;48.678;9.280;2022-11-20T03:39:19;7.00;;;2.50;;
8708;SDS011;4391;48.678;9.280;2022-11-20T03:41:45;5.78;;;2.10;;
8708;SDS011;4391;48.678;9.280;2022-11-20T03:44:12;5.43;;;2.25;;
8708;SDS011;4391;48.678;9.280;2022-11-20T03:46:39;5.78;;;2.05;;
8708;SDS011;4391;48.678;9.280;2022-11-20T03:49:07;4.35;;;2.08;;
8708;SDS011;4391;48.678;9.280;2022-11-20T03:51:34;4.53;;;2.20;;
8708;SDS011;4391;48.678;9.280;2022-11-20T03:54:02;4.47;;;2.00;;
8708;SDS011;4391;48.678;9.280;2022-11-20T03:56:31;5.22;;;1.98;;
8708;SDS011;4391;48.678;9.280;2022-11-20T03:58:59;5.20;;;1.98;;
8708;SDS011;4391;48.678;9.280;2022-11-20T04:01:27;5.18;;;2.03;;
8708;SDS011;4391;48.678;9.280;2022-11-20T04:03:55;6.23;;;2.50;;
8708;SDS011;4391;48.678;9.280;2022-11-20T04:06:24;4.95;;;1.75;;
8708;SDS011;4391;48.678;9.280;2022-11-20T04:08:53;6.65;;;1.98;;
8708;SDS011;4391;48.678;9.280;2022-11-20T04:11:22;6.13;;;2.72;;
8708;SDS011;4391;48.678;9.280;2022-11-20T04:13:51;4.55;;;1.92;;
8708;SDS011;4391;48.678;9.280;2022-11-20T04:16:20;5.30;;;2.03;;
8708;SDS011;4391;48.678;9.280;2022-11-20T04:18:51;5.57;;;2.42;;
8708;SDS011;4391;48.678;9.280;2022-11-20T04:21:18;4.85;;;2.38;;
8708;SDS011;4391;48.678;9.280;2022-11-20T04:23:47;6.18;;;2.15;;
8708;SDS011;4391;48.678;9.280;2022-11-20T04:26:14;7.30;;;2.17;;
8708;SDS011;4391;48.678;9.280;2022-11-20T04:28:41;4.93;;;2.13;;
8708;SDS011;4391;48.678;9.280;2022-11-20T04:31:08;8.13;;;1.98;;
8708;SDS011;4391;48.678;9.280;2022-11-20T04:33:36;4.50;;;2.17;;
8708;SDS011;4391;48.678;9.280;2022-11-20T04:36:04;5.55;;;2.28;;
8708;SDS011;4391;48.678;9.280;2022-11-20T04:38:32;4.72;;;1.55;;
8708;SDS011;4391;48.678;9.280;2022-11-20T04:41:02;4.83;;;2.00;;
8708;SDS011;4391;48.678;9.280;2022-11-20T04:43:30;4.93;;;1.92;;
8708;SDS011;4391;48.678;9.280;2022-11-20T04:45:58;4.47;;;2.22;;
8708;SDS011;4391;48.678;9.280;2022-11-20T04:48:26;5.15;;;2.53;;
8708;SDS011;4391;48.678;9.280;2022-11-20T04:50:54;4.78;;;2.03;;
8708;SDS011;4391;48.678;9.280;2022-11-20T04:53:21;4.93;;;1.80;;
8708;SDS011;4391;48.678;9.280;2022-11-20T04:55:49;4.47;;;1.73;;
8708;SDS011;4391;48.678;9.280;2022-11-20T05:00:52;4.47;;;2.00;;
8708;SDS011;4391;48.678;9.280;2022-11-20T05:03:19;5.00;;;2.13;;
8708;SDS011;4391;48.678;9.280;2022-11-20T05:05:46;3.43;;;1.40;;
8708;SDS011;4391;48.678;9.280;2022-11-20T05:08:13;4.20;;;1.73;;
8708;SDS011;4391;48.678;9.280;2022-11-20T05:10:40;4.75;;;1.27;;
8708;SDS011;4391;48.678;9.280;2022-11-20T05:13:07;5.03;;;1.83;;
8708;SDS011;4391;48.678;9.280;2022-11-20T05:15:34;5.40;;;2.10;;
8708;SDS011;4391;48.678;9.280;2022-11-20T05:18:02;4.13;;;1.60;;
8708;SDS011;4391;48.678;9.280;2022-11-20T05:20:29;4.10;;;1.67;;
8708;SDS011;4391;48.678;9.280;2022-11-20T05:22:56;4.00;;;1.65;;
8708;SDS011;4391;48.678;9.280;2022-11-20T05:25:23;3.90;;;1.50;;
8708;SDS011;4391;48.678;9.280;2022-11-20T05:27:50;3.65;;;1.83;;
8708;SDS011;4391;48.678;9.280;2022-11-20T05:30:17;4.63;;;1.73;;
8708;SDS011;4391;48.678;9.280;2022-11-20T05:32:44;3.67;;;1.52;;
8708;SDS011;4391;48.678;9.280;2022-11-20T05:35:12;4.75;;;1.40;;
8708;SDS011;4391;48.678;9.280;2022-11-20T05:37:39;4.50;;;1.63;;
8708;SDS011;4391;48.678;9.280;2022-11-20T05:40:06;4.28;;;1.60;;
8708;SDS011;4391;48.678;9.280;2022-11-20T05:42:34;5.10;;;2.17;;
8708;SDS011;4391;48.678;9.280;2022-11-20T05:45:02;3.90;;;1.70;;
8708;SDS011;4391;48.678;9.280;2022-11-20T05:47:31;4.68;;;1.85;;
8708;SDS011;4391;48.678;9.280;2022-11-20T05:49:59;4.28;;;1.90;;
8708;SDS011;4391;48.678;9.280;2022-11-20T05:52:29;6.70;;;1.50;;
8708;SDS011;4391;48.678;9.280;2022-11-20T05:54:56;4.00;;;1.83;;
8708;SDS011;4391;48.678;9.280;2022-11-20T05:57:23;4.35;;;1.35;;
8708;SDS011;4391;48.678;9.280;2022-11-20T05:59:50;6.25;;;1.70;;
8708;SDS011;4391;48.678;9.280;2022-11-20T06:02:17;4.45;;;1.70;;
8708;SDS011;4391;48.678;9.280;2022-11-20T06:04:44;4.20;;;1.77;;
8708;SDS011;4391;48.678;9.280;2022-11-20T06:07:11;5.33;;;1.90;;
8708;SDS011;4391;48.678;9.280;2022-11-20T06:09:39;4.47;;;1.67;;
8708;SDS011;4391;48.678;9.280;2022-11-20T06:12:06;4.13;;;1.70;;
8708;SDS011;4391;48.678;9.280;2022-11-20T06:14:33;3.42;;;1.45;;
8708;SDS011;4391;48.678;9.280;2022-11-20T06:17:00;4.65;;;1.85;;
8708;SDS011;4391;48.678;9.280;2022-11-20T06:19:27;5.73;;;2.07;;
8708;SDS011;4391;48.678;9.280;2022-11-20T06:21:54;4.40;;;1.90;;
8708;SDS011;4391;48.678;9.280;2022-11-20T06:24:20;4.97;;;1.60;;
8708;SDS011;4391;48.678;9.280;2022-11-20T06:26:49;4.63;;;2.00;;
8708;SDS011;4391;48.678;9.280;2022-11-20T06:29:16;4.57;;;2.13;;
8708;SDS011;4391;48.678;9.280;2022-11-20T06:31:43;4.17;;;1.53;;
8708;SDS011;4391;48.678;9.280;2022-11-20T06:34:11;4.00;;;1.70;;
8708;SDS011;4391;48.678;9.280;2022-11-20T06:36:38;4.97;;;1.70;;
8708;SDS011;4391;48.678;9.280;2022-11-20T06:39:04;4.57;;;2.00;;
8708;SDS011;4391;48.678;9.280;2022-11-20T06:41:31;4.13;;;1.70;;
8708;SDS011;4391;48.678;9.280;2022-11-20T06:43:59;7.33;;;2.00;;
8708;SDS011;4391;48.678;9.280;2022-11-20T06:46:26;4.50;;;1.52;;
8708;SDS011;4391;48.678;9.280;2022-11-20T06:48:53;3.42;;;1.50;;
8708;SDS011;4391;48.678;9.280;2022-11-20T06:51:20;6.20;;;1.58;;
8708;SDS011;4391;48.678;9.280;2022-11-20T06:53:47;4.00;;;1.70;;
8708;SDS011;4391;48.678;9.280;2022-11-20T06:56:14;7.17;;;2.03;;
8708;SDS011;4391;48.678;9.280;2022-11-20T06:58:41;4.30;;;1.70;;
8708;SDS011;4391;48.678;9.280;2022-11-20T07:01:10;5.50;;;1.90;;
8708;SDS011;4391;48.678;9.280;2022-11-20T07:03:39;4.15;;;1.90;;
8708;SDS011;4391;48.678;9.280;2022-11-20T07:06:06;6.07;;;1.98;;
8708;SDS011;4391;48.678;9.280;2022-11-20T07:08:33;4.63;;;1.77;;
8708;SDS011;4391;48.678;9.280;2022-11-20T07:11:01;4.63;;;2.25;;
8708;SDS011;4391;48.678;9.280;2022-11-20T07:13:29;5.07;;;1.85;;
8708;SDS011;4391;48.678;9.280;2022-11-20T07:15:59;4.63;;;1.88;;
8708;SDS011;4391;48.678;9.280;2022-11-20T07:18:28;6.88;;;2.30;;
8708;SDS011;4391;48.678;9.280;2022-11-20T07:20:55;6.10;;;2.10;;
8708;SDS011;4391;48.678;9.280;2022-11-20T07:23:22;4.85;;;2.00;;
8708;SDS011;4391;48.678;9.280;2022-11-20T07:25:49;7.68;;;1.63;;
8708;SDS011;4391;48.678;9.280;2022-11-20T07:28:16;4.75;;;1.80;;
8708;SDS011;4391;48.678;9.280;2022-11-20T07:30:42;6.28;;;1.52;;
8708;SDS011;4391;48.678;9.280;2022-11-20T07:33:15;5.13;;;1.50;;
8708;SDS011;4391;48.678;9.280;2022-11-20T07:35:43;3.08;;;1.40;;
8708;SDS011;4391;48.678;9.280;2022-11-20T07:38:10;3.80;;;1.50;;
8708;SDS011;4391;48.678;9.280;2022-11-20T07:40:37;4.38;;;1.83;;
8708;SDS011;4391;48.678;9.280;2022-11-20T07:43:03;5.15;;;1.90;;
8708;SDS011;4391;48.678;9.280;2022-11-20T07:45:30;5.17;;;1.90;;
8708;SDS011;4391;48.678;9.280;2022-11-20T07:47:57;3.63;;;1.60;;
8708;SDS011;4391;48.678;9.280;2022-11-20T07:50:24;6.38;;;1.85;;
8708;SDS011;4391;48.678;9.280;2022-11-20T07:52:52;4.78;;;1.73;;
8708;SDS011;4391;48.678;9.280;2022-11-20T07:55:26;4.05;;;1.50;;
8708;SDS011;4391;48.678;9.280;2022-11-20T07:57:54;4.93;;;1.53;;
8708;SDS011;4391;48.678;9.280;2022-11-20T08:00:21;4.50;;;1.33;;
8708;SDS011;4391;48.678;9.280;2022-11-20T08:02:48;4.45;;;1.40;;
8708;SDS011;4391;48.678;9.280;2022-11-20T08:05:15;4.55;;;1.30;;
8708;SDS011;4391;48.678;9.280;2022-11-20T08:07:43;4.80;;;1.25;;
8708;SDS011;4391;48.678;9.280;2022-11-20T08:10:12;2.97;;;1.10;;
8708;SDS011;4391;48.678;9.280;2022-11-20T08:12:43;3.38;;;1.20;;
8708;SDS011;4391;48.678;9.280;2022-11-20T08:15:27;3.67;;;1.30;;
8708;SDS011;4391;48.678;9.280;2022-11-20T08:17:58;4.88;;;1.38;;
8708;SDS011;4391;48.678;9.280;2022-11-20T08:20:26;2.72;;;1.10;;
8708;SDS011;4391;48.678;9.280;2022-11-20T08:22:57;2.77;;;0.90;;
8708;SDS011;4391;48.678;9.280;2022-11-20T08:25:26;4.25;;;1.20;;
8708;SDS011;4391;48.678;9.280;2022-11-20T08:27:53;3.58;;;1.60;;
8708;SDS011;4391;48.678;9.280;2022-11-20T08:30:20;3.10;;;1.40;;
8708;SDS011;4391;48.678;9.280;2022-11-20T08:32:46;2.88;;;1.05;;
8708;SDS011;4391;48.678;9.280;2022-11-20T08:35:13;3.60;;;1.30;;
8708;SDS011;4391;48.678;9.280;2022-11-20T08:37:40;2.85;;;1.00;;
8708;SDS011;4391;48.678;9.280;2022-11-20T08:40:08;3.25;;;1.20;;
8708;SDS011;4391;48.678;9.280;2022-11-20T08:42:45;6.95;;;2.47;;
8708;SDS011;4391;48.678;9.280;2022-11-20T08:45:12;5.78;;;2.10;;
8708;SDS011;4391;48.678;9.280;2022-11-20T08:47:39;3.60;;;1.40;;
8708;SDS011;4391;48.678;9.280;2022-11-20T08:50:06;4.60;;;1.67;;
8708;SDS011;4391;48.678;9.280;2022-11-20T08:52:34;3.55;;;1.55;;
8708;SDS011;4391;48.678;9.280;2022-11-20T08:55:01;3.45;;;0.90;;
8708;SDS011;4391;48.678;9.280;2022-11-20T08:57:28;3.83;;;1.20;;
8708;SDS011;4391;48.678;9.280;2022-11-20T08:59:58;4.13;;;1.40;;
8708;SDS011;4391;48.678;9.280;2022-11-20T09:02:25;4.10;;;1.25;;
8708;SDS011;4391;48.678;9.280;2022-11-20T09:04:52;4.32;;;1.45;;
8708;SDS011;4391;48.678;9.280;2022-11-20T09:07:19;3.17;;;1.00;;
8708;SDS011;4391;48.678;9.280;2022-11-20T09:09:46;2.22;;;0.80;;
8708;SDS011;4391;48.678;9.280;2022-11-20T09:12:13;3.17;;;1.10;;
8708;SDS011;4391;48.678;9.280;2022-11-20T09:14:40;2.85;;;0.90;;
8708;SDS011;4391;48.678;9.280;2022-11-20T09:17:08;2.78;;;1.00;;
8708;SDS011;4391;48.678;9.280;2022-11-20T09:19:38;4.55;;;1.02;;
8708;SDS011;4391;48.678;9.280;2022-11-20T09:22:05;2.38;;;0.70;;
8708;SDS011;4391;48.678;9.280;2022-11-20T09:24:32;2.97;;;1.00;;
8708;SDS011;4391;48.678;9.280;2022-11-20T09:27:01;2.70;;;0.90;;
8708;SDS011;4391;48.678;9.280;2022-11-20T09:29:29;5.65;;;1.25;;
8708;SDS011;4391;48.678;9.280;2022-11-20T09:31:56;4.85;;;1.10;;
8708;SDS011;4391;48.678;9.280;2022-11-20T09:34:24;3.78;;;1.17;;
8708;SDS011;4391;48.678;9.280;2022-11-20T09:36:51;3.53;;;1.27;;
8708;SDS011;4391;48.678;9.280;2022-11-20T09:39:18;3.58;;;1.30;;
8708;SDS011;4391;48.678;9.280;2022-11-20T09:42:05;3.97;;;1.30;;
8708;SDS011;4391;48.678;9.280;2022-11-20T09:44:50;4.28;;;1.45;;
8708;SDS011;4391;48.678;9.280;2022-11-20T09:47:33;4.35;;;1.55;;
8708;SDS011;4391;48.678;9.280;2022-11-20T09:50:17;6.40;;;2.50;;
8708;SDS011;4391;48.678;9.280;2022-11-20T09:52:55;4.65;;;1.88;;
8708;SDS011;4391;48.678;9.280;2022-11-20T09:55:31;5.22;;;1.88;;
8708;SDS011;4391;48.678;9.280;2022-11-20T09:58:00;2.85;;;1.20;;
8708;SDS011;4391;48.678;9.280;2022-11-20T10:00:27;2.47;;;0.90;;
8708;SDS011;4391;48.678;9.280;2022-11-20T10:02:55;2.17;;;0.80;;
8708;SDS011;4391;48.678;9.280;2022-11-20T10:05:30;3.17;;;0.90;;
8708;SDS011;4391;48.678;9.280;2022-11-20T10:08:04;3.55;;;1.10;;
8708;SDS011;4391;48.678;9.280;2022-11-20T10:10:40;3.47;;;1.00;;
8708;SDS011;4391;48.678;9.280;2022-11-20T10:13:16;3.25;;;0.90;;
8708;SDS011;4391;48.678;9.280;2022-11-20T10:15:56;3.20;;;1.10;;
8708;SDS011;4391;48.678;9.280;2022-11-20T10:18:38;7.72;;;1.85;;
8708;SDS011;4391;48.678;9.280;2022-11-20T10:21:22;8.65;;;2.38;;
8708;SDS011;4391;48.678;9.280;2022-11-20T10:23:57;5.47;;;1.45;;
8708;SDS011;4391;48.678;9.280;2022-11-20T10:26:38;2.95;;;0.95;;
8708;SDS011;4391;48.678;9.280;2022-11-20T10:29:14;3.40;;;1.00;;
8708;SDS011;4391;48.678;9.280;2022-11-20T10:31:43;2.53;;;1.00;;
8708;SDS011;4391;48.678;9.280;2022-11-20T10:34:15;4.68;;;1.70;;
8708;SDS011;4391;48.678;9.280;2022-11-20T10:36:49;3.38;;;1.10;;
8708;SDS011;4391;48.678;9.280;2022-11-20T10:39:22;3.90;;;1.30;;
8708;SDS011;4391;48.678;9.280;2022-11-20T10:41:56;3.27;;;1.23;;
8708;SDS011;4391;48.678;9.280;2022-11-20T10:44:26;3.00;;;1.10;;
8708;SDS011;4391;48.678;9.280;2022-11-20T10:47:12;4.15;;;0.93;;
8708;SDS011;4391;48.678;9.280;2022-11-20T10:49:40;3.88;;;1.45;;
8708;SDS011;4391;48.678;9.280;2022-11-20T10:52:16;3.70;;;1.40;;
8708;SDS011;4391;48.678;9.280;2022-11-20T10:54:55;2.97;;;1.00;;
8708;SDS011;4391;48.678;9.280;2022-11-20T10:57:32;4.07;;;1.38;;
8708;SDS011;4391;48.678;9.280;2022-11-20T11:00:13;4.97;;;1.13;;
8708;SDS011;4391;48.678;9.280;2022-11-20T11:02:43;3.60;;;0.90;;
8708;SDS011;4391;48.678;9.280;2022-11-20T11:05:16;3.30;;;1.30;;
8708;SDS011;4391;48.678;9.280;2022-11-20T11:07:50;3.43;;;1.20;;
8708;SDS011;4391;48.678;9.280;2022-11-20T11:10:21;4.78;;;1.33;;
8708;SDS011;4391;48.678;9.280;2022-11-20T11:12:52;3.80;;;1.10;;
8708;SDS011;4391;48.678;9.280;2022-11-20T11:15:25;2.28;;;0.82;;
8708;SDS011;4391;48.678;9.280;2022-11-20T11:17:54;3.58;;;0.90;;
8708;SDS011;4391;48.678;9.280;2022-11-20T11:20:22;2.90;;;1.07;;
8708;SDS011;4391;48.678;9.280;2022-11-20T11:22:52;4.05;;;1.52;;
8708;SDS011;4391;48.678;9.280;2022-11-20T11:25:28;4.97;;;1.38;;
8708;SDS011;4391;48.678;9.280;2022-11-20T11:27:59;3.58;;;1.08;;
8708;SDS011;4391;48.678;9.280;2022-11-20T11:30:28;2.88;;;1.08;;
8708;SDS011;4391;48.678;9.280;2022-11-20T11:33:03;3.20;;;1.10;;
8708;SDS011;4391;48.678;9.280;2022-11-20T11:35:32;2.85;;;1.00;;
8708;SDS011;4391;48.678;9.280;2022-11-20T11:38:04;2.95;;;1.10;;
8708;SDS011;4391;48.678;9.280;2022-11-20T11:40:33;3.65;;;1.05;;
8708;SDS011;4391;48.678;9.280;2022-11-20T11:43:04;2.83;;;0.90;;
8708;SDS011;4391;48.678;9.280;2022-11-20T11:45:53;4.67;;;1.10;;
8708;SDS011;4391;48.678;9.280;2022-11-20T11:48:20;4.32;;;1.10;;
8708;SDS011;4391;48.678;9.280;2022-11-20T11:50:48;4.47;;;0.98;;
8708;SDS011;4391;48.678;9.280;2022-11-20T11:53:17;2.90;;;1.20;;
8708;SDS011;4391;48.678;9.280;2022-11-20T11:55:46;3.60;;;1.35;;
8708;SDS011;4391;48.678;9.280;2022-11-20T11:58:29;6.50;;;2.47;;
8708;SDS011;4391;48.678;9.280;2022-11-20T12:01:07;6.07;;;2.03;;
8708;SDS011;4391;48.678;9.280;2022-11-20T12:03:50;3.10;;;1.30;;
8708;SDS011;4391;48.678;9.280;2022-11-20T12:06:25;2.55;;;0.95;;
8708;SDS011;4391;48.678;9.280;2022-11-20T12:08:58;3.97;;;1.10;;
8708;SDS011;4391;48.678;9.280;2022-11-20T12:11:30;4.20;;;1.60;;
8708;SDS011;4391;48.678;9.280;2022-11-20T12:14:01;6.13;;;1.98;;
8708;SDS011;4391;48.678;9.280;2022-11-20T12:16:35;4.13;;;1.52;;
8708;SDS011;4391;48.678;9.280;2022-11-20T12:19:07;4.15;;;1.80;;
8708;SDS011;4391;48.678;9.280;2022-11-20T12:21:38;5.18;;;1.70;;
8708;SDS011;4391;48.678;9.280;2022-11-20T12:24:28;3.63;;;1.47;;
8708;SDS011;4391;48.678;9.280;2022-11-20T12:27:06;7.07;;;1.30;;
8708;SDS011;4391;48.678;9.280;2022-11-20T12:29:53;3.97;;;1.33;;
8708;SDS011;4391;48.678;9.280;2022-11-20T12:32:37;3.17;;;1.10;;
8708;SDS011;4391;48.678;9.280;2022-11-20T12:35:24;4.15;;;1.10;;
8708;SDS011;4391;48.678;9.280;2022-11-20T12:38:15;3.13;;;0.80;;
8708;SDS011;4391;48.678;9.280;2022-11-20T12:41:02;3.47;;;1.08;;
8708;SDS011;4391;48.678;9.280;2022-11-20T12:43:36;3.30;;;0.95;;
8708;SDS011;4391;48.678;9.280;2022-11-20T12:46:27;4.40;;;1.08;;
8708;SDS011;4391;48.678;9.280;2022-11-20T12:49:09;3.33;;;1.17;;
8708;SDS011;4391;48.678;9.280;2022-11-20T12:51:55;2.67;;;1.00;;
8708;SDS011;4391;48.678;9.280;2022-11-20T12:54:42;3.25;;;1.20;;
8708;SDS011;4391;48.678;9.280;2022-11-20T12:57:18;7.85;;;1.88;;
8708;SDS011;4391;48.678;9.280;2022-11-20T13:00:07;6.57;;;2.65;;
8708;SDS011;4391;48.678;9.280;2022-11-20T13:02:53;5.45;;;1.90;;
8708;SDS011;4391;48.678;9.280;2022-11-20T13:05:35;4.13;;;0.80;;
8708;SDS011;4391;48.678;9.280;2022-11-20T13:08:12;4.22;;;0.90;;
8708;SDS011;4391;48.678;9.280;2022-11-20T13:10:46;3.53;;;0.70;;
8708;SDS011;4391;48.678;9.280;2022-11-20T13:13:20;3.20;;;1.02;;
8708;SDS011;4391;48.678;9.280;2022-11-20T13:15:50;3.58;;;1.00;;
8708;SDS011;4391;48.678;9.280;2022-11-20T13:18:23;2.60;;;0.73;;
8708;SDS011;4391;48.678;9.280;2022-11-20T13:20:50;3.25;;;0.85;;
8708;SDS011;4391;48.678;9.280;2022-11-20T13:23:23;3.42;;;0.82;;
8708;SDS011;4391;48.678;9.280;2022-11-20T13:26:02;3.00;;;0.82;;
8708;SDS011;4391;48.678;9.280;2022-11-20T13:28:32;2.83;;;0.70;;
8708;SDS011;4391;48.678;9.280;2022-11-20T13:30:59;5.33;;;0.97;;
8708;SDS011;4391;48.678;9.280;2022-11-20T13:33:27;2.33;;;0.77;;
8708;SDS011;4391;48.678;9.280;2022-11-20T13:35:57;3.70;;;1.00;;
8708;SDS011;4391;48.678;9.280;2022-11-20T13:38:26;3.60;;;1.17;;
8708;SDS011;4391;48.678;9.280;2022-11-20T13:40:54;7.93;;;1.60;;
8708;SDS011;4391;48.678;9.280;2022-11-20T13:43:23;6.30;;;1.40;;
8708;SDS011;4391;48.678;9.280;2022-11-20T13:46:00;4.78;;;1.30;;
8708;SDS011;4391;48.678;9.280;2022-11-20T13:48:30;5.20;;;1.30;;
8708;SDS011;4391;48.678;9.280;2022-11-20T13:51:01;3.85;;;1.00;;
8708;SDS011;4391;48.678;9.280;2022-11-20T13:53:47;4.55;;;1.02;;
8708;SDS011;4391;48.678;9.280;2022-11-20T13:56:32;5.10;;;1.20;;
8708;SDS011;4391;48.678;9.280;2022-11-20T13:59:07;12.43;;;4.05;;
8708;SDS011;4391;48.678;9.280;2022-11-20T14:01:45;4.80;;;1.73;;
8708;SDS011;4391;48.678;9.280;2022-11-20T14:04:13;2.55;;;0.80;;
8708;SDS011;4391;48.678;9.280;2022-11-20T14:06:45;2.10;;;0.75;;
8708;SDS011;4391;48.678;9.280;2022-11-20T14:09:25;2.70;;;1.27;;
8708;SDS011;4391;48.678;9.280;2022-11-20T14:11:52;3.33;;;1.10;;
8708;SDS011;4391;48.678;9.280;2022-11-20T14:14:20;2.72;;;1.23;;
8708;SDS011;4391;48.678;9.280;2022-11-20T14:16:49;5.97;;;1.70;;
8708;SDS011;4391;48.678;9.280;2022-11-20T14:19:23;2.50;;;0.90;;
8708;SDS011;4391;48.678;9.280;2022-11-20T14:21:54;2.73;;;0.80;;
8708;SDS011;4391;48.678;9.280;2022-11-20T14:24:32;5.10;;;1.10;;
8708;SDS011;4391;48.678;9.280;2022-11-20T14:26:59;3.00;;;1.20;;
8708;SDS011;4391;48.678;9.280;2022-11-20T14:29:27;3.28;;;1.10;;
8708;SDS011;4391;48.678;9.280;2022-11-20T14:32:00;4.07;;;1.25;;
8708;SDS011;4391;48.678;9.280;2022-11-20T14:34:32;7.63;;;1.33;;
8708;SDS011;4391;48.678;9.280;2022-11-20T14:37:04;3.58;;;1.00;;
8708;SDS011;4391;48.678;9.280;2022-11-20T14:39:37;3.63;;;1.17;;
8708;SDS011;4391;48.678;9.280;2022-11-20T14:42:12;3.83;;;1.30;;
8708;SDS011;4391;48.678;9.280;2022-11-20T14:44:41;4.40;;;1.10;;
8708;SDS011;4391;48.678;9.280;2022-11-20T14:47:10;5.17;;;1.00;;
8708;SDS011;4391;48.678;9.280;2022-11-20T14:49:39;4.38;;;1.00;;
8708;SDS011;4391;48.678;9.280;2022-11-20T14:52:11;3.20;;;0.80;;
8708;SDS011;4391;48.678;9.280;2022-11-20T14:54:44;2.95;;;0.90;;
8708;SDS011;4391;48.678;9.280;2022-11-20T14:57:20;2.60;;;0.80;;
8708;SDS011;4391;48.678;9.280;2022-11-20T14:59:49;3.30;;;0.80;;
8708;SDS011;4391;48.678;9.280;2022-11-20T15:02:18;4.20;;;1.00;;
8708;SDS011;4391;48.678;9.280;2022-11-20T15:04:45;3.55;;;1.40;;
8708;SDS011;4391;48.678;9.280;2022-11-20T15:07:23;5.10;;;1.35;;
8708;SDS011;4391;48.678;9.280;2022-11-20T15:09:59;4.70;;;1.10;;
8708;SDS011;4391;48.678;9.280;2022-11-20T15:12:30;3.20;;;0.80;;
8708;SDS011;4391;48.678;9.280;2022-11-20T15:14:58;4.38;;;1.30;;
8708;SDS011;4391;48.678;9.280;2022-11-20T15:17:27;6.15;;;1.30;;
8708;SDS011;4391;48.678;9.280;2022-11-20T15:19:54;3.60;;;1.05;;
8708;SDS011;4391;48.678;9.280;2022-11-20T15:22:22;6.07;;;1.98;;
8708;SDS011;4391;48.678;9.280;2022-11-20T15:24:48;3.10;;;1.30;;
8708;SDS011;4391;48.678;9.280;2022-11-20T15:27:15;5.90;;;1.73;;
8708;SDS011;4391;48.678;9.280;2022-11-20T15:29:45;6.93;;;2.40;;
8708;SDS011;4391;48.678;9.280;2022-11-20T15:32:12;10.05;;;4.40;;
8708;SDS011;4391;48.678;9.280;2022-11-20T15:34:40;22.27;;;9.75;;
8708;SDS011;4391;48.678;9.280;2022-11-20T15:37:07;15.27;;;7.23;;